NCAR-RAP Real-Time Weather Data

Output produced by METARs form (12 August 2020  17:45 UTC)
found at http://weather.rap.ucar.edu/surface/
 
KBOI 121653Z 32007KT 10SM CLR 26/01 A2996 RMK AO2 SLP112 T02560006
KBOI 121553Z 32009KT 10SM CLR 24/01 A2995 RMK AO2 SLP109 T02440006
KBOI 121453Z 00000KT 10SM CLR 22/02 A2995 RMK AO2 SLP109 T02170017 51022
KBOI 121353Z 00000KT 10SM CLR 19/01 A2993 RMK AO2 SLP102 T01940011
KBOI 121253Z 20003KT 10SM CLR 18/02 A2990 RMK AO2 SLP091 T01830017
KBOI 121153Z 00000KT 10SM CLR 20/02 A2987 RMK AO2 SLP081 T02000017 10289 20200 53015
KBOI 121053Z 27008KT 10SM CLR 22/03 A2985 RMK AO2 SLP072 T02220033
KBOI 120953Z 00000KT 10SM CLR 24/04 A2983 RMK AO2 SLP065 T02390039
KBOI 120853Z 12005KT 10SM CLR 26/03 A2983 RMK AO2 SLP061 T02560033 50003
KBOI 120753Z 17004KT 10SM CLR 28/03 A2983 RMK AO2 SLP062 T02780028
KBOI 120653Z 13007KT 10SM CLR 27/03 A2983 RMK AO2 SLP062 T02720028 403610167
KBOI 120553Z 10006KT 10SM CLR 28/03 A2982 RMK AO2 SLP060 T02830033 10361 20278 51012
KBOI 120453Z 17006KT 10SM CLR 28/03 A2981 RMK AO2 SLP059 T02830033
KBOI 120353Z 21012KT 10SM CLR 30/03 A2980 RMK AO2 SLP057 T03000028
KBOI 120253Z 22005KT 10SM CLR 31/06 A2978 RMK AO2 SLP051 T03060056 55001
KBOI 120153Z 19012KT 10SM CLR 33/02 A2977 RMK AO2 SLP048 T03280022
KBOI 120053Z 02005KT 10SM CLR 34/02 A2977 RMK AO2 SLP049 T03440017
KBOI 112353Z 03005KT 10SM CLR 36/02 A2978 RMK AO2 SLP052 T03560017 10361 20306 56025
KBOI 112253Z VRB04KT 10SM CLR 35/01 A2981 RMK AO2 SLP059 T03500011
KBOI 112153Z 36007KT 10SM CLR 36/03 A2983 RMK AO2 SLP067 T03560028